Thedford, Nebraska
Current Conditions -  °F | °C
As of 11:35 PM on Sunday 19 Oct 2014 (Local Time) from KTIF Reporting Station
Clear Clear  
Wind Chill: 47°   Ceiling: Unl
Heat Index: 47°   Visibility: 10mi
Dew Point: 37°   Wind: 3mph
Humidity: 68%   Direction: 240°WSW
Pressure: 30.08"   Gusts: NA
Location:  41.98°N, 100.58°W
Report Text: KTIF 200435Z AUTO 24003KT 10SM CLR 08/03 A3008 RMK AO2 T00840029
Loading
Personal Weather Stations






























Interactive Weather Map
Tropical Storm Tracking
New forecast layout! Learn more

10-Day Weather Forecast

Advertisements
Track Severe Weather on mobile